Time;durP1;ratioP1;P1;durP2;ratioP2;P2;SDS_P1;SDS_P2;PMS_P1;PMS_P2;Temp;Humidity;BMP_temperature;BMP_pressure;BME280_temperature;BME280_humidity;BME280_pressure;Samples;Min_cycle;Max_cycle;Signal;HPM_P1;HPM_P2
2023/04/11 00:00:26;;;;;;;17.05;1.88;;;9.80;90.40;;;;;;6025440;23;88121;-77
2023/04/11 00:02:51;;;;;;;22.05;2.53;;;9.80;90.30;;;;;;6022756;23;87786;-78
2023/04/11 00:05:17;;;;;;;23.50;2.65;;;9.80;90.20;;;;;;6039486;23;90475;-78
2023/04/11 00:07:43;;;;;;;30.20;3.60;;;9.80;90.30;;;;;;6048496;23;92050;-78
2023/04/11 00:10:09;;;;;;;25.30;3.90;;;9.70;90.50;;;;;;6056117;23;90667;-76
2023/04/11 00:12:34;;;;;;;14.57;2.25;;;9.60;90.50;;;;;;6081562;23;88159;-78
2023/04/11 00:15:00;;;;;;;26.70;3.08;;;9.60;90.60;;;;;;6081913;23;88335;-77
2023/04/11 00:17:27;;;;;;;17.38;2.55;;;9.60;90.70;;;;;;6081429;23;91210;-77
2023/04/11 00:19:54;;;;;;;21.63;3.20;;;9.50;90.80;;;;;;6081970;23;88301;-77
2023/04/11 00:22:22;;;;;;;23.45;3.30;;;9.50;90.70;;;;;;6082081;23;90676;-78
2023/04/11 00:24:48;;;;;;;29.35;4.00;;;9.50;90.90;;;;;;6056206;23;90402;-78
2023/04/11 00:27:14;;;;;;;23.83;3.75;;;9.40;90.90;;;;;;6088806;22;91235;-77
2023/04/11 00:29:40;;;;;;;27.38;3.38;;;9.40;90.90;;;;;;6142707;22;90803;-77
2023/04/11 00:32:06;;;;;;;26.63;3.08;;;9.40;91.10;;;;;;6143421;22;87458;-78
2023/04/11 00:34:33;;;;;;;22.10;3.33;;;9.40;90.90;;;;;;6142952;22;90801;-77
2023/04/11 00:36:58;;;;;;;25.50;3.47;;;9.40;90.90;;;;;;6143277;22;89188;-77
2023/04/11 00:39:25;;;;;;;29.58;3.25;;;9.30;90.90;;;;;;6142796;22;90715;-78
2023/04/11 00:41:51;;;;;;;20.48;3.20;;;9.30;90.90;;;;;;6143608;22;87767;-76
2023/04/11 00:44:16;;;;;;;25.70;3.38;;;9.20;90.90;;;;;;6142050;22;90336;-77
2023/04/11 00:46:43;;;;;;;28.60;3.22;;;9.20;91.00;;;;;;6142483;22;90730;-77
2023/04/11 00:49:10;;;;;;;19.52;3.05;;;9.20;91.20;;;;;;6144029;22;88196;-77
2023/04/11 00:51:36;;;;;;;27.02;4.05;;;9.10;91.10;;;;;;6142875;22;87486;-77
2023/04/11 00:54:02;;;;;;;22.33;2.67;;;9.20;91.00;;;;;;6143755;22;86789;-76
2023/04/11 00:56:27;;;;;;;25.67;4.05;;;9.10;91.00;;;;;;6143592;22;87491;-77
2023/04/11 00:58:54;;;;;;;26.88;3.05;;;9.20;90.90;;;;;;6143101;22;87890;-77
2023/04/11 01:01:22;;;;;;;34.97;4.72;;;9.10;90.80;;;;;;6141214;22;88451;-77
2023/04/11 01:03:48;;;;;;;30.08;4.38;;;9.10;90.90;;;;;;6141827;22;90806;-77
2023/04/11 01:06:17;;;;;;;21.02;3.03;;;9.10;90.90;;;;;;6171459;22;91031;-77
2023/04/11 01:08:45;;;;;;;32.85;4.47;;;9.00;90.90;;;;;;6173830;22;88418;-78
2023/04/11 01:11:11;;;;;;;28.63;3.03;;;9.00;91.00;;;;;;6172458;22;87789;-77
2023/04/11 01:13:39;;;;;;;20.77;3.50;;;9.00;91.00;;;;;;6175541;22;87963;-77
2023/04/11 01:16:05;;;;;;;23.80;3.80;;;8.90;91.10;;;;;;6174071;22;87623;-76
2023/04/11 01:18:31;;;;;;;25.83;3.13;;;8.90;91.20;;;;;;6173978;22;90818;-77
2023/04/11 01:20:59;;;;;;;37.08;3.60;;;8.90;91.20;;;;;;6173027;22;87691;-78
2023/04/11 01:23:25;;;;;;;22.45;3.33;;;8.90;91.10;;;;;;6174981;22;87881;-77
2023/04/11 01:25:51;;;;;;;31.70;3.72;;;8.90;91.20;;;;;;6174506;22;89085;-77
2023/04/11 01:28:20;;;;;;;33.13;4.32;;;8.90;91.30;;;;;;6172672;22;91234;-77
2023/04/11 01:30:46;;;;;;;31.23;4.43;;;8.90;91.30;;;;;;6174008;22;87568;-77
2023/04/11 01:33:13;;;;;;;31.52;4.18;;;8.90;91.40;;;;;;6173803;22;91060;-78
2023/04/11 01:35:39;;;;;;;28.67;4.18;;;8.90;91.40;;;;;;6171960;22;91365;-77
2023/04/11 01:38:05;;;;;;;27.38;3.47;;;8.90;91.60;;;;;;6173085;22;91179;-78
2023/04/11 01:40:32;;;;;;;35.75;4.38;;;8.90;91.60;;;;;;6172919;22;87700;-78
2023/04/11 01:42:58;;;;;;;35.50;3.80;;;9.00;91.40;;;;;;6173733;22;89334;-77
2023/04/11 01:45:28;;;;;;;35.58;4.38;;;9.00;91.30;;;;;;6173704;22;91213;-78
2023/04/11 01:47:54;;;;;;;31.10;5.03;;;9.00;91.30;;;;;;6174913;22;88131;-77
2023/04/11 01:50:20;;;;;;;31.90;3.25;;;8.90;91.30;;;;;;6172529;22;88771;-76
2023/04/11 01:52:50;;;;;;;37.20;4.13;;;8.90;91.30;;;;;;6171916;22;88735;-78
2023/04/11 01:55:16;;;;;;;25.83;3.58;;;8.90;91.40;;;;;;6174440;22;87668;-77
2023/04/11 01:57:42;;;;;;;31.80;3.25;;;8.80;91.30;;;;;;6173023;22;90446;-78
2023/04/11 02:00:09;;;;;;;25.25;3.25;;;8.80;91.40;;;;;;6176042;22;87766;-77
2023/04/11 02:02:36;;;;;;;34.00;4.40;;;8.80;91.40;;;;;;6172381;22;90051;-77
2023/04/11 02:05:02;;;;;;;27.60;3.72;;;8.80;91.40;;;;;;6188584;22;89063;-78
2023/04/11 02:07:27;;;;;;;30.90;3.85;;;8.70;91.40;;;;;;6205268;22;87611;-77
2023/04/11 02:09:53;;;;;;;39.08;4.90;;;8.70;91.40;;;;;;6205312;22;87817;-77
2023/04/11 02:12:19;;;;;;;35.63;3.47;;;8.70;91.30;;;;;;6178972;22;90979;-77
2023/04/11 02:14:45;;;;;;;37.72;3.80;;;8.70;91.40;;;;;;6204028;22;89809;-78
2023/04/11 02:17:11;;;;;;;32.58;3.38;;;8.60;91.50;;;;;;6205611;22;88919;-77
2023/04/11 02:19:44;;;;;;;31.17;4.00;;;8.60;91.70;;;;;;6205688;22;87134;-77
2023/04/11 02:22:10;;;;;;;37.03;5.05;;;8.60;91.60;;;;;;6138933;22;89453;-77
2023/04/11 02:24:36;;;;;;;25.60;3.08;;;8.60;91.50;;;;;;6081501;23;89191;-77
2023/04/11 02:27:02;;;;;;;33.97;3.15;;;8.60;91.50;;;;;;6022730;23;90099;-77
2023/04/11 02:29:28;;;;;;;29.55;3.90;;;8.60;91.40;;;;;;5998411;23;87842;-77
2023/04/11 02:31:54;;;;;;;34.78;3.88;;;8.60;91.30;;;;;;5998457;23;90225;-76
2023/04/11 02:34:19;;;;;;;25.83;4.40;;;8.60;91.30;;;;;;5998209;23;91779;-77
2023/04/11 02:36:46;;;;;;;34.53;3.90;;;8.60;91.40;;;;;;6021755;23;87863;-77
2023/04/11 02:39:12;;;;;;;25.95;3.22;;;8.60;91.30;;;;;;5998004;23;88401;-76
2023/04/11 02:41:39;;;;;;;26.88;3.53;;;8.60;91.40;;;;;;6022504;23;87692;-76
2023/04/11 02:44:05;;;;;;;30.55;4.07;;;8.50;91.40;;;;;;5997304;23;91726;-76
2023/04/11 02:46:30;;;;;;;29.30;3.72;;;8.50;91.50;;;;;;6022126;23;88097;-77
2023/04/11 02:48:56;;;;;;;29.30;3.33;;;8.50;91.60;;;;;;6022446;23;87729;-77
2023/04/11 02:51:22;;;;;;;27.45;3.33;;;8.40;91.60;;;;;;5998952;23;90337;-76
2023/04/11 02:53:47;;;;;;;33.97;3.50;;;8.50;91.60;;;;;;6019295;23;90658;-76
2023/04/11 02:56:17;;;;;;;25.73;3.85;;;8.50;91.50;;;;;;6094698;23;87438;-77
2023/04/11 02:58:43;;;;;;;32.35;3.78;;;8.40;91.50;;;;;;6110990;23;87688;-76
2023/04/11 03:01:10;;;;;;;27.80;3.92;;;8.40;91.60;;;;;;6086322;23;89190;-77
2023/04/11 03:03:37;;;;;;;24.58;3.15;;;8.30;91.80;;;;;;6086285;22;91505;-76
2023/04/11 03:06:05;;;;;;;33.13;3.70;;;8.30;91.90;;;;;;6114911;22;92215;-76
2023/04/11 03:08:31;;;;;;;29.23;3.50;;;8.30;92.00;;;;;;6115357;22;87621;-76
2023/04/11 03:10:57;;;;;;;23.35;3.03;;;8.20;92.10;;;;;;6140910;22;87814;-77
2023/04/11 03:13:22;;;;;;;27.90;4.25;;;8.20;92.00;;;;;;6114960;22;91206;-76
2023/04/11 03:15:48;;;;;;;28.73;4.88;;;8.20;92.00;;;;;;6115156;22;91478;-76
2023/04/11 03:18:14;;;;;;;35.88;3.95;;;8.30;91.80;;;;;;6141799;22;88076;-76
2023/04/11 03:20:40;;;;;;;28.08;3.35;;;8.30;91.90;;;;;;6140935;22;87233;-76
2023/04/11 03:23:05;;;;;;;31.92;4.68;;;8.30;91.80;;;;;;6140124;22;91304;-76
2023/04/11 03:25:31;;;;;;;31.70;3.67;;;8.30;91.70;;;;;;6114890;22;91179;-76
2023/04/11 03:27:57;;;;;;;24.08;4.55;;;8.30;91.50;;;;;;6114400;22;88410;-77
2023/04/11 03:30:22;;;;;;;25.25;3.65;;;8.30;91.40;;;;;;6141459;22;88035;-75
2023/04/11 03:32:48;;;;;;;25.95;3.75;;;8.40;91.00;;;;;;6140534;22;87827;-77
2023/04/11 03:35:13;;;;;;;22.48;3.38;;;8.40;91.10;;;;;;6139594;22;88125;-76
2023/04/11 03:37:39;;;;;;;27.80;3.38;;;8.40;90.90;;;;;;6050529;23;87854;-76
2023/04/11 03:40:07;;;;;;;34.30;3.70;;;8.50;90.90;;;;;;6022070;23;88534;-77
2023/04/11 03:42:34;;;;;;;23.52;3.75;;;8.50;90.80;;;;;;6051754;23;88230;-76
2023/04/11 03:45:00;;;;;;;26.10;3.22;;;8.50;90.70;;;;;;5992792;23;91354;-76
2023/04/11 03:47:25;;;;;;;22.08;2.97;;;8.50;90.60;;;;;;6016944;23;88007;-76
2023/04/11 03:49:51;;;;;;;39.85;4.57;;;8.60;90.60;;;;;;5993230;23;87572;-76
2023/04/11 03:52:17;;;;;;;30.58;3.72;;;8.50;90.70;;;;;;6015796;23;92205;-77
2023/04/11 03:54:42;;;;;;;26.67;3.75;;;8.50;90.70;;;;;;6016178;23;94509;-76
2023/04/11 03:57:08;;;;;;;26.35;3.45;;;8.50;90.60;;;;;;5993405;23;87531;-76
2023/04/11 03:59:34;;;;;;;24.65;3.50;;;8.60;90.70;;;;;;5993201;23;88283;-77
2023/04/11 04:01:59;;;;;;;28.65;4.00;;;8.50;90.70;;;;;;5992939;23;88896;-76
2023/04/11 04:04:25;;;;;;;25.35;3.92;;;8.50;90.70;;;;;;5991778;23;88409;-77
2023/04/11 04:06:55;;;;;;;21.23;3.88;;;8.50;90.60;;;;;;6018011;23;87639;-77
2023/04/11 04:09:22;;;;;;;19.95;2.90;;;8.50;90.50;;;;;;6038252;23;87164;-78
2023/04/11 04:11:48;;;;;;;29.15;3.17;;;8.50;90.80;;;;;;6051217;23;88789;-77
2023/04/11 04:14:14;;;;;;;18.35;3.25;;;8.50;90.90;;;;;;6051100;23;87817;-76
2023/04/11 04:16:39;;;;;;;30.30;4.72;;;8.40;90.90;;;;;;6098674;22;89077;-77
2023/04/11 04:19:05;;;;;;;25.27;3.60;;;8.40;90.90;;;;;;6204476;22;87490;-77
2023/04/11 04:21:31;;;;;;;29.30;3.72;;;8.30;91.00;;;;;;6178379;22;90792;-77
2023/04/11 04:24:02;;;;;;;29.33;3.58;;;8.30;91.20;;;;;;6204864;22;88033;-80
2023/04/11 04:26:28;;;;;;;23.85;3.05;;;8.20;91.20;;;;;;6176704;22;87606;-77
2023/04/11 04:28:56;;;;;;;21.80;2.85;;;8.20;91.20;;;;;;6204304;22;87663;-76
2023/04/11 04:31:24;;;;;;;25.40;2.85;;;8.20;91.20;;;;;;6177804;22;91738;-77
2023/04/11 04:33:50;;;;;;;26.58;3.65;;;8.20;91.30;;;;;;6205649;22;88227;-77
2023/04/11 04:36:18;;;;;;;26.48;2.85;;;8.20;91.30;;;;;;6140590;22;87618;-76
2023/04/11 04:38:44;;;;;;;25.38;3.72;;;8.10;91.50;;;;;;6114301;22;90955;-76
2023/04/11 04:41:13;;;;;;;27.83;4.28;;;8.10;91.50;;;;;;6139861;22;88773;-76
2023/04/11 04:43:40;;;;;;;31.23;3.63;;;8.10;91.40;;;;;;6141533;22;88802;-76
2023/04/11 04:46:06;;;;;;;27.02;3.70;;;8.10;91.50;;;;;;6116293;22;87834;-77
2023/04/11 04:48:32;;;;;;;29.70;4.30;;;8.00;91.50;;;;;;6117353;22;90449;-76
2023/04/11 04:50:57;;;;;;;25.38;2.72;;;8.10;91.50;;;;;;6115530;22;89855;-77
2023/04/11 04:53:23;;;;;;;34.28;3.58;;;8.00;91.40;;;;;;6115931;22;90919;-78
2023/04/11 04:55:49;;;;;;;28.77;3.45;;;8.10;91.30;;;;;;6116559;22;87719;-77
2023/04/11 04:58:14;;;;;;;26.45;3.67;;;8.10;91.40;;;;;;6141800;22;86896;-77
2023/04/11 05:00:40;;;;;;;25.58;6.10;;;8.00;91.40;;;;;;6117343;22;91627;-78
2023/04/11 05:03:07;;;;;;;25.13;3.03;;;8.00;91.40;;;;;;6081951;23;90283;-78
2023/04/11 05:05:33;;;;;;;26.95;4.75;;;8.00;91.60;;;;;;6081246;23;88652;-77
2023/04/11 05:07:59;;;;;;;28.42;4.07;;;8.00;91.50;;;;;;6108800;22;90275;-77
2023/04/11 05:10:25;;;;;;;26.13;3.28;;;8.00;91.60;;;;;;6115268;22;91245;-77
2023/04/11 05:12:52;;;;;;;25.73;4.55;;;8.00;91.40;;;;;;6116205;22;91285;-77
2023/04/11 05:15:20;;;;;;;23.52;3.45;;;8.00;91.30;;;;;;6140899;22;87696;-77
2023/04/11 05:17:45;;;;;;;26.02;3.20;;;8.10;91.40;;;;;;6140655;22;87634;-76
2023/04/11 05:20:12;;;;;;;25.08;2.80;;;8.00;91.40;;;;;;6115068;22;91546;-77
2023/04/11 05:22:38;;;;;;;33.08;4.25;;;8.00;91.50;;;;;;6115378;22;90505;-77
2023/04/11 05:25:04;;;;;;;24.25;3.50;;;8.00;91.50;;;;;;6139597;22;87266;-74
2023/04/11 05:27:30;;;;;;;29.95;3.17;;;8.00;91.50;;;;;;6116810;22;90533;-78
2023/04/11 05:29:55;;;;;;;22.42;2.97;;;8.00;91.50;;;;;;6141053;22;90041;-79
2023/04/11 05:32:21;;;;;;;27.30;3.08;;;8.00;91.40;;;;;;6141563;22;88508;-77
2023/04/11 05:34:55;;;;;;;21.92;3.58;;;8.00;91.20;;;;;;6135583;22;87643;-79
2023/04/11 05:37:20;;;;;;;28.30;3.25;;;8.10;91.20;;;;;;6142238;22;89872;-77
2023/04/11 05:39:46;;;;;;;31.40;3.28;;;8.10;91.30;;;;;;6143064;22;91187;-77
2023/04/11 05:42:14;;;;;;;30.10;3.03;;;8.10;91.20;;;;;;6142987;22;91116;-78
2023/04/11 05:44:40;;;;;;;19.63;2.60;;;8.10;91.10;;;;;;6142238;22;87840;-77
2023/04/11 05:47:05;;;;;;;28.52;4.32;;;8.20;91.10;;;;;;6142756;22;90410;-74
2023/04/11 05:49:31;;;;;;;28.13;5.82;;;8.20;91.00;;;;;;6141725;22;91514;-75
2023/04/11 05:51:57;;;;;;;27.00;3.78;;;8.20;91.00;;;;;;6143252;22;88031;-74
2023/04/11 05:54:33;;;;;;;21.70;3.08;;;8.20;90.90;;;;;;6152726;22;87914;-78
2023/04/11 05:56:59;;;;;;;33.25;4.88;;;8.20;90.60;;;;;;6153728;22;90609;-79
2023/04/11 05:59:24;;;;;;;21.63;3.72;;;8.30;90.70;;;;;;6158112;22;91547;-76
2023/04/11 06:01:50;;;;;;;23.30;3.38;;;8.30;90.80;;;;;;6155543;22;90986;-77
2023/04/11 06:04:16;;;;;;;21.42;3.38;;;8.30;90.60;;;;;;6160471;22;87153;-76
2023/04/11 06:06:42;;;;;;;26.42;3.10;;;8.30;90.50;;;;;;6214455;22;87766;-76
2023/04/11 06:09:09;;;;;;;21.90;2.67;;;8.40;90.30;;;;;;6190421;22;91527;-77
2023/04/11 06:11:35;;;;;;;21.23;3.35;;;8.40;90.40;;;;;;6216003;22;87662;-77
2023/04/11 06:14:00;;;;;;;24.38;3.00;;;8.50;90.50;;;;;;6217931;22;86982;-77
2023/04/11 06:16:26;;;;;;;20.80;2.85;;;8.50;90.20;;;;;;6187106;22;90276;-76
2023/04/11 06:18:52;;;;;;;29.80;3.72;;;8.50;90.10;;;;;;6187232;22;92284;-75
2023/04/11 06:21:17;;;;;;;25.15;3.28;;;8.60;90.00;;;;;;6181609;22;92028;-76
2023/04/11 06:23:43;;;;;;;23.98;3.45;;;8.60;89.80;;;;;;6179373;22;87333;-74
2023/04/11 06:26:09;;;;;;;29.65;2.72;;;8.70;90.10;;;;;;6218744;22;87027;-75
2023/04/11 06:28:35;;;;;;;26.45;3.10;;;8.70;89.20;;;;;;6221137;22;88213;-75
2023/04/11 06:31:01;;;;;;;18.75;2.25;;;8.80;90.00;;;;;;6193633;22;89957;-74
2023/04/11 06:33:26;;;;;;;20.85;2.35;;;8.80;88.70;;;;;;6219177;22;87093;-75
2023/04/11 06:35:52;;;;;;;23.23;3.38;;;8.90;88.90;;;;;;6194075;22;90062;-74
2023/04/11 06:38:17;;;;;;;21.15;3.25;;;8.90;88.40;;;;;;6191355;22;91012;-73
2023/04/11 06:40:43;;;;;;;19.23;2.83;;;8.90;88.50;;;;;;6218508;22;87760;-79
2023/04/11 06:43:09;;;;;;;25.40;3.08;;;9.00;87.70;;;;;;6192281;22;88197;-73
2023/04/11 06:45:34;;;;;;;19.33;2.55;;;9.00;88.00;;;;;;6218284;22;87032;-74
2023/04/11 06:48:00;;;;;;;27.63;2.60;;;9.00;87.90;;;;;;6191448;22;91426;-76
2023/04/11 06:50:26;;;;;;;53.78;3.92;;;9.10;88.20;;;;;;6218328;22;87362;-74
2023/04/11 06:52:51;;;;;;;21.05;2.85;;;9.10;87.40;;;;;;6191144;22;87082;-75
2023/04/11 06:55:17;;;;;;;18.77;3.33;;;9.10;87.10;;;;;;6187338;22;88658;-78
2023/04/11 06:57:43;;;;;;;28.50;3.35;;;9.20;88.00;;;;;;6171188;22;88626;-76
2023/04/11 07:00:11;;;;;;;28.88;2.65;;;9.30;87.90;;;;;;6146320;22;90936;-78
2023/04/11 07:02:37;;;;;;;16.88;2.17;;;9.30;87.50;;;;;;6145725;22;87780;-77
2023/04/11 07:05:04;;;;;;;20.83;2.78;;;9.30;86.30;;;;;;6147396;22;90336;-77
2023/04/11 07:07:30;;;;;;;18.60;3.70;;;9.40;86.20;;;;;;6143355;22;93853;-77
2023/04/11 07:09:56;;;;;;;18.15;2.78;;;9.40;85.60;;;;;;6147547;22;92577;-78
2023/04/11 07:12:22;;;;;;;16.23;2.38;;;9.50;86.10;;;;;;6145687;22;87614;-79
2023/04/11 07:14:47;;;;;;;17.52;2.88;;;9.50;86.50;;;;;;6173359;22;87675;-78
2023/04/11 07:17:13;;;;;;;20.40;3.22;;;9.60;85.30;;;;;;6147109;22;90716;-78
2023/04/11 07:19:38;;;;;;;23.90;2.80;;;9.60;85.00;;;;;;6147914;22;90544;-77
2023/04/11 07:22:04;;;;;;;22.92;3.30;;;9.70;85.60;;;;;;6148572;22;87777;-78
2023/04/11 07:24:30;;;;;;;18.45;3.10;;;9.70;83.80;;;;;;6168712;22;87864;-77
2023/04/11 07:26:57;;;;;;;20.20;3.55;;;9.70;84.50;;;;;;6170872;22;87155;-77
2023/04/11 07:29:23;;;;;;;21.05;2.80;;;9.90;85.60;;;;;;6169701;22;89690;-78
2023/04/11 07:31:50;;;;;;;16.83;2.22;;;10.00;85.50;;;;;;6206292;22;88418;-78
2023/04/11 07:34:16;;;;;;;17.58;3.28;;;10.00;83.90;;;;;;6203978;22;87583;-77
2023/04/11 07:36:41;;;;;;;14.02;2.30;;;10.00;84.00;;;;;;6204289;22;88156;-77
2023/04/11 07:39:11;;;;;;;13.88;2.85;;;10.10;84.20;;;;;;6139585;22;89723;-79
2023/04/11 07:41:37;;;;;;;18.88;2.42;;;10.20;81.60;;;;;;6118480;22;87292;-78
2023/04/11 07:44:08;;;;;;;21.27;2.83;;;10.30;80.60;;;;;;6117492;22;87413;-77
2023/04/11 07:46:34;;;;;;;17.67;3.00;;;10.40;81.30;;;;;;6116344;22;94559;-77
2023/04/11 07:49:00;;;;;;;22.48;2.88;;;10.30;79.30;;;;;;6117014;22;90697;-78
2023/04/11 07:51:26;;;;;;;20.67;3.08;;;10.30;78.40;;;;;;6053100;23;87176;-78
2023/04/11 07:53:53;;;;;;;23.90;3.85;;;10.20;78.00;;;;;;6053355;23;90374;-79
2023/04/11 07:56:18;;;;;;;13.75;2.90;;;10.20;78.70;;;;;;6023003;23;91716;-78
2023/04/11 07:58:44;;;;;;;12.05;2.75;;;10.30;79.40;;;;;;6025198;23;92211;-77
2023/04/11 08:01:20;;;;;;;17.83;2.97;;;10.40;78.20;;;;;;6000786;23;87450;-78
2023/04/11 08:03:45;;;;;;;23.58;3.47;;;10.40;77.20;;;;;;6001203;23;91123;-79
2023/04/11 08:06:11;;;;;;;15.20;2.78;;;10.50;79.30;;;;;;6022491;23;88342;-79
2023/04/11 08:08:36;;;;;;;14.82;2.53;;;10.60;78.70;;;;;;6025903;23;88006;-77
2023/04/11 08:11:02;;;;;;;16.67;3.03;;;10.70;75.90;;;;;;6052425;23;87611;-76
2023/04/11 08:13:28;;;;;;;13.65;2.35;;;10.70;76.10;;;;;;6064706;23;88879;-79
2023/04/11 08:15:53;;;;;;;28.90;3.00;;;10.90;75.40;;;;;;6055973;23;90691;-77
2023/04/11 08:18:20;;;;;;;13.65;2.58;;;11.00;72.70;;;;;;6056262;23;88322;-78
2023/04/11 08:20:47;;;;;;;24.45;3.50;;;11.00;74.90;;;;;;6051360;23;88543;-78
2023/04/11 08:23:14;;;;;;;15.07;2.78;;;11.20;72.10;;;;;;6042591;23;88778;-78
2023/04/11 08:25:40;;;;;;;18.70;2.60;;;11.20;73.90;;;;;;6053007;23;88208;-78
2023/04/11 08:28:08;;;;;;;17.40;2.58;;;11.10;73.80;;;;;;6098354;23;88311;-78
2023/04/11 08:30:34;;;;;;;13.27;2.15;;;11.10;71.20;;;;;;6110450;23;87696;-78
2023/04/11 08:33:00;;;;;;;13.65;1.80;;;11.20;70.30;;;;;;6109347;23;87665;-78
2023/04/11 08:35:26;;;;;;;11.43;2.22;;;11.30;68.10;;;;;;6111152;23;89490;-78
2023/04/11 08:37:53;;;;;;;15.13;1.80;;;11.50;69.90;;;;;;6086682;23;90915;-78
2023/04/11 08:40:19;;;;;;;8.13;1.52;;;11.50;68.70;;;;;;6105979;23;88327;-77
2023/04/11 08:42:45;;;;;;;13.95;1.55;;;11.30;65.20;;;;;;6084821;23;89823;-76
2023/04/11 08:45:11;;;;;;;10.43;1.45;;;11.20;65.70;;;;;;6083985;23;91956;-76
2023/04/11 08:47:36;;;;;;;13.57;1.45;;;11.40;65.10;;;;;;6108555;23;91334;-76
2023/04/11 08:50:03;;;;;;;16.50;2.50;;;11.40;63.30;;;;;;6085501;23;87719;-76
2023/04/11 08:52:30;;;;;;;16.95;2.05;;;11.50;64.40;;;;;;6084826;23;88626;-76
2023/04/11 08:54:56;;;;;;;12.75;2.25;;;11.60;64.80;;;;;;6117337;22;90237;-77
2023/04/11 08:57:27;;;;;;;14.48;2.38;;;11.60;63.70;;;;;;6114240;22;90949;-77
2023/04/11 08:59:54;;;;;;;14.07;2.22;;;11.60;64.30;;;;;;6114133;22;87078;-76
2023/04/11 09:02:20;;;;;;;8.32;1.80;;;11.70;62.70;;;;;;6113785;22;90497;-76
2023/04/11 09:04:46;;;;;;;7.00;1.52;;;11.90;61.80;;;;;;6139287;22;87911;-76
2023/04/11 09:07:14;;;;;;;10.73;1.83;;;11.80;60.60;;;;;;6115207;22;91306;-76
2023/04/11 09:09:40;;;;;;;8.95;2.00;;;11.90;61.50;;;;;;6139551;22;88902;-76
2023/04/11 09:12:05;;;;;;;13.80;1.70;;;12.10;62.10;;;;;;6138626;22;87888;-76
2023/04/11 09:14:31;;;;;;;7.57;1.58;;;12.20;60.00;;;;;;6140357;22;91445;-77
2023/04/11 09:17:11;;;;;;;7.80;1.35;;;12.20;59.70;;;;;;6140216;22;88326;-76
2023/04/11 09:19:38;;;;;;;13.10;1.65;;;12.30;60.50;;;;;;6115238;22;88609;-76
2023/04/11 09:22:04;;;;;;;7.93;1.40;;;12.30;60.00;;;;;;6139617;22;87482;-77
2023/04/11 09:24:30;;;;;;;7.63;1.02;;;12.50;61.00;;;;;;6139216;22;88745;-76
2023/04/11 09:27:09;;;;;;;10.80;1.80;;;12.40;58.10;;;;;;6173814;22;92180;-79
2023/04/11 09:29:54;;;;;;;11.75;1.88;;;12.50;58.10;;;;;;6177020;22;87713;-77
2023/04/11 09:32:34;;;;;;;9.75;1.88;;;12.70;57.90;;;;;;6204583;22;87463;-76
2023/04/11 09:35:19;;;;;;;11.88;1.88;;;12.70;56.70;;;;;;6180602;22;92231;-77
2023/04/11 09:37:47;;;;;;;8.85;1.48;;;12.70;56.10;;;;;;6205976;22;91745;-77
2023/04/11 09:40:15;;;;;;;9.02;1.52;;;12.90;57.90;;;;;;6206674;22;87464;-77
2023/04/11 09:42:42;;;;;;;10.85;1.98;;;13.00;55.60;;;;;;6206130;22;88261;-78
2023/04/11 09:45:22;;;;;;;11.32;2.28;;;12.90;57.50;;;;;;6178344;22;91434;-78
2023/04/11 09:47:49;;;;;;;9.40;1.50;;;12.80;56.60;;;;;;6179041;22;90515;-77
2023/04/11 09:50:16;;;;;;;12.73;2.53;;;12.90;57.20;;;;;;6205300;22;87625;-76
2023/04/11 09:52:43;;;;;;;5.72;0.98;;;13.10;57.70;;;;;;6179472;22;91047;-77
2023/04/11 09:55:13;;;;;;;15.13;2.53;;;13.40;56.50;;;;;;6177958;22;91088;-76
2023/04/11 09:57:45;;;;;;;11.68;1.38;;;13.60;57.10;;;;;;6205565;22;87862;-77
2023/04/11 10:00:15;;;;;;;7.75;1.00;;;13.50;56.30;;;;;;6205024;22;88768;-78
2023/04/11 10:02:43;;;;;;;9.90;1.58;;;13.50;54.50;;;;;;6177837;22;89251;-78
2023/04/11 10:05:09;;;;;;;9.73;1.85;;;13.60;55.70;;;;;;6205493;22;88060;-77
2023/04/11 10:07:55;;;;;;;11.77;1.80;;;13.40;54.80;;;;;;6206742;22;87679;-77
2023/04/11 10:10:23;;;;;;;9.45;1.60;;;13.50;56.50;;;;;;6206216;22;87592;-76
2023/04/11 10:12:49;;;;;;;8.95;2.45;;;13.50;55.80;;;;;;6178627;22;89636;-77
2023/04/11 10:15:16;;;;;;;10.50;1.83;;;13.20;55.80;;;;;;6178852;22;91835;-77
2023/04/11 10:18:01;;;;;;;10.07;1.50;;;13.20;57.60;;;;;;6205691;22;88443;-77
2023/04/11 10:20:45;;;;;;;14.98;1.35;;;13.10;56.00;;;;;;6205664;22;87779;-78
2023/04/11 10:23:12;;;;;;;9.45;2.33;;;13.30;55.30;;;;;;6177224;22;90156;-77
2023/04/11 10:25:52;;;;;;;11.25;1.67;;;13.40;57.00;;;;;;6205523;22;90432;-75
2023/04/11 10:28:38;;;;;;;10.35;1.10;;;13.40;54.70;;;;;;6204724;22;89637;-77
2023/04/11 10:31:06;;;;;;;8.45;1.38;;;13.30;54.40;;;;;;6177468;22;87828;-77
2023/04/11 10:33:32;;;;;;;9.85;1.77;;;13.50;53.60;;;;;;6205662;22;87738;-75
2023/04/11 10:36:04;;;;;;;9.68;1.23;;;13.80;55.20;;;;;;6176788;22;91899;-76
2023/04/11 10:38:47;;;;;;;11.20;1.42;;;14.30;54.40;;;;;;6205254;22;87816;-77
2023/04/11 10:41:24;;;;;;;8.48;1.23;;;14.00;50.20;;;;;;6178334;22;87581;-77
2023/04/11 10:43:50;;;;;;;10.50;1.30;;;13.70;52.10;;;;;;6179074;22;91231;-77
2023/04/11 10:46:24;;;;;;;7.38;1.15;;;13.60;52.40;;;;;;6178128;22;91507;-75
2023/04/11 10:49:01;;;;;;;6.95;1.30;;;13.80;53.00;;;;;;6204597;22;88274;-77
2023/04/11 10:51:28;;;;;;;9.57;1.58;;;13.90;51.30;;;;;;6176992;22;88728;-77
2023/04/11 10:53:58;;;;;;;10.48;1.30;;;13.70;51.30;;;;;;6204142;22;88169;-77
2023/04/11 10:56:41;;;;;;;9.48;1.48;;;13.40;52.20;;;;;;6177492;22;91735;-77
2023/04/11 10:59:27;;;;;;;;;;;13.20;53.00;;;;;;6178355;22;90943;-76
2023/04/11 11:01:57;;;;;;;13.45;1.75;;;13.50;53.30;;;;;;6181577;22;87938;-77
2023/04/11 11:04:39;;;;;;;11.65;1.27;;;14.10;52.20;;;;;;6204053;22;87949;-77
2023/04/11 11:07:11;;;;;;;9.55;1.33;;;14.20;52.50;;;;;;6204878;22;88123;-77
2023/04/11 11:09:37;;;;;;;10.05;1.20;;;14.00;52.60;;;;;;6207459;22;87807;-77
2023/04/11 11:12:07;;;;;;;9.68;1.40;;;13.70;52.00;;;;;;6208823;22;87156;-77
2023/04/11 11:14:33;;;;;;;8.35;1.60;;;13.40;52.70;;;;;;6179767;22;90029;-78
2023/04/11 11:16:59;;;;;;;7.68;1.45;;;13.70;52.90;;;;;;6204556;22;88566;-77
2023/04/11 11:19:25;;;;;;;9.15;1.00;;;14.20;53.60;;;;;;6180375;22;91105;-79
2023/04/11 11:21:51;;;;;;;9.55;1.15;;;14.70;51.70;;;;;;6176839;22;87484;-78
2023/04/11 11:24:26;;;;;;;7.90;1.08;;;15.10;49.10;;;;;;6178810;22;90307;-77
2023/04/11 11:26:53;;;;;;;9.48;1.30;;;14.90;49.20;;;;;;6138858;22;89413;-79
2023/04/11 11:29:31;;;;;;;6.32;1.20;;;14.60;49.80;;;;;;6118272;22;91179;-79
2023/04/11 11:31:56;;;;;;;10.65;1.63;;;14.40;50.50;;;;;;6143693;22;87311;-78
2023/04/11 11:34:27;;;;;;;9.68;1.38;;;14.10;50.80;;;;;;6124766;22;90451;-77
2023/04/11 11:36:55;;;;;;;9.93;1.38;;;13.90;53.10;;;;;;6119397;22;91390;-78
2023/04/11 11:39:27;;;;;;;9.45;1.13;;;13.70;52.20;;;;;;6152298;22;90940;-78
2023/04/11 11:41:54;;;;;;;8.23;1.83;;;13.50;53.40;;;;;;6148257;22;88567;-78
2023/04/11 11:44:25;;;;;;;7.32;1.05;;;13.10;57.40;;;;;;6145256;22;88030;-77
2023/04/11 11:47:03;;;;;;;12.68;1.60;;;12.60;60.60;;;;;;6122708;22;91620;-77
2023/04/11 11:49:54;;;;;;;7.88;1.35;;;12.20;61.00;;;;;;6123130;22;91909;-73
2023/04/11 11:52:39;;;;;;;6.40;1.40;;;12.10;59.80;;;;;;6143762;22;87712;-73
2023/04/11 11:55:08;;;;;;;6.28;1.10;;;12.60;62.90;;;;;;6140037;22;87506;-73
2023/04/11 11:57:46;;;;;;;7.68;1.70;;;13.30;58.70;;;;;;6162128;22;87920;-72
2023/04/11 12:00:12;;;;;;;8.38;1.13;;;13.70;58.90;;;;;;6177640;22;91096;-72
2023/04/11 12:02:42;;;;;;;9.80;1.25;;;14.00;54.80;;;;;;6176694;22;87448;-73
2023/04/11 12:05:10;;;;;;;14.90;2.90;;;13.70;56.80;;;;;;6204387;22;87464;-72
2023/04/11 12:07:37;;;;;;;11.32;1.77;;;13.70;58.80;;;;;;6177500;22;92542;-73
2023/04/11 12:10:07;;;;;;;8.05;1.90;;;13.70;56.20;;;;;;6177220;22;91329;-73
2023/04/11 12:12:47;;;;;;;9.32;1.48;;;13.50;57.10;;;;;;6177771;22;87244;-72
2023/04/11 12:15:17;;;;;;;8.50;1.20;;;13.50;58.60;;;;;;6177264;22;88894;-73
2023/04/11 12:17:48;;;;;;;12.00;1.58;;;13.40;61.50;;;;;;6204116;22;88040;-74
2023/04/11 12:20:16;;;;;;;10.00;1.75;;;13.50;62.80;;;;;;6173601;22;91679;-74
2023/04/11 12:22:42;;;;;;;11.85;1.80;;;13.90;61.20;;;;;;6176038;22;87699;-74
2023/04/11 12:25:10;;;;;;;9.60;2.22;;;14.20;53.60;;;;;;6204441;22;87330;-74
2023/04/11 12:27:37;;;;;;;10.75;1.48;;;14.20;55.30;;;;;;6172966;22;88572;-74
2023/04/11 12:30:03;;;;;;;12.88;1.55;;;14.00;55.20;;;;;;6176715;22;91259;-74
2023/04/11 12:32:31;;;;;;;10.18;1.58;;;13.80;57.40;;;;;;6174471;22;88399;-74
2023/04/11 12:34:57;;;;;;;11.52;1.33;;;13.90;57.20;;;;;;6177409;22;90428;-74
2023/04/11 12:37:23;;;;;;;7.65;1.63;;;14.30;54.00;;;;;;6177136;22;91174;-76
2023/04/11 12:39:49;;;;;;;7.40;1.55;;;14.80;53.80;;;;;;6203363;22;87822;-74
2023/04/11 12:42:15;;;;;;;16.30;2.08;;;15.10;53.60;;;;;;6204263;22;87541;-74
2023/04/11 12:44:41;;;;;;;6.90;1.13;;;15.40;54.10;;;;;;6176471;22;89590;-75
2023/04/11 12:47:06;;;;;;;16.13;1.75;;;15.80;51.80;;;;;;6176536;22;91001;-74